createdAt,value
2017-11-20T09:30:20.053Z,7.57
2017-11-20T09:32:49.443Z,8.95
2017-11-20T09:35:18.889Z,9.07
2017-11-20T09:37:48.726Z,9.75
2017-11-20T09:40:17.998Z,11.55
2017-11-20T09:42:47.906Z,10.73
2017-11-20T09:45:18.328Z,9.05
2017-11-20T09:47:47.517Z,10.60
2017-11-20T09:50:18.588Z,18.02
2017-11-20T09:52:48.505Z,14.38
2017-11-20T09:55:21.894Z,6.37
2017-11-20T09:57:53.205Z,8.57
2017-11-20T10:00:26.823Z,6.25
2017-11-20T10:02:56.706Z,9.30
2017-11-20T10:05:26.977Z,8.93
2017-11-20T10:07:56.886Z,7.55
2017-11-20T10:10:26.809Z,8.43
2017-11-20T10:12:56.814Z,6.68
2017-11-20T10:15:28.341Z,8.48
2017-11-20T10:17:57.483Z,9.30
2017-11-20T10:20:27.638Z,8.95
2017-11-20T10:22:56.832Z,8.38
2017-11-20T10:25:33.190Z,9.60
2017-11-20T10:28:08.791Z,6.03
2017-11-20T10:30:39.972Z,10.35
2017-11-20T10:33:12.218Z,9.07
2017-11-20T10:35:42.986Z,13.62
2017-11-20T10:38:12.283Z,7.32
2017-11-20T10:40:44.693Z,6.60
2017-11-20T10:43:15.242Z,5.40
2017-11-20T10:45:45.246Z,7.47
2017-11-20T10:48:15.356Z,5.53
2017-11-20T10:50:44.718Z,5.05
2017-11-20T10:53:14.645Z,6.28
2017-11-20T10:55:45.388Z,5.20
2017-11-20T10:58:15.452Z,7.68
2017-11-20T11:00:47.026Z,5.03
2017-11-20T11:03:16.544Z,5.05
2017-11-20T11:05:47.516Z,6.78
2017-11-20T11:08:17.525Z,5.03
2017-11-20T11:10:47.018Z,7.03
2017-11-20T11:13:18.157Z,4.78
2017-11-20T11:15:47.616Z,5.22
2017-11-20T11:18:17.675Z,4.97
2017-11-20T11:20:48.532Z,4.80
2017-11-20T11:23:17.815Z,5.45
2017-11-20T11:25:51.474Z,4.18
2017-11-20T11:28:22.156Z,4.75
2017-11-20T11:30:59.483Z,8.10
2017-11-20T11:33:29.549Z,5.12
2017-11-20T11:35:59.973Z,7.12
2017-11-20T11:38:30.378Z,4.43
2017-11-20T11:40:59.577Z,7.90
2017-11-20T11:43:29.624Z,3.83
2017-11-20T11:46:00.128Z,6.45
2017-11-20T11:48:30.192Z,4.95
2017-11-20T11:51:01.709Z,4.85
2017-11-20T11:53:31.805Z,4.55
2017-11-20T11:59:04.248Z,5.45
2017-11-20T12:01:35.677Z,5.70
2017-11-20T12:04:06.567Z,7.05
2017-11-20T12:06:36.721Z,5.35
2017-11-20T12:09:08.965Z,5.28
2017-11-20T12:11:38.435Z,6.15
2017-11-20T12:14:09.528Z,9.35
2017-11-20T12:16:41.876Z,8.80
2017-11-20T12:19:12.286Z,7.47
2017-11-20T12:21:42.421Z,6.30
2017-11-20T12:24:14.116Z,10.48
2017-11-20T12:26:44.776Z,6.28
2017-11-20T12:29:14.966Z,6.47
2017-11-20T12:31:44.739Z,5.55
2017-11-20T12:34:15.783Z,6.40
2017-11-20T12:36:45.124Z,8.90
2017-11-20T12:39:14.506Z,7.00
2017-11-20T12:41:44.696Z,8.75
2017-11-20T12:44:13.961Z,6.68
2017-11-20T12:46:43.951Z,5.90
2017-11-20T12:49:13.504Z,6.10
2017-11-20T12:51:42.757Z,7.25
2017-11-20T12:54:12.069Z,8.57
2017-11-20T12:56:41.332Z,6.93
2017-11-20T12:59:10.662Z,6.68
2017-11-20T13:01:40.858Z,9.73
2017-11-20T13:04:12.742Z,7.00
2017-11-20T13:06:43.365Z,8.93
2017-11-20T13:09:28.414Z,8.98
2017-11-20T13:11:59.198Z,9.50
2017-11-20T13:14:29.786Z,8.23
2017-11-20T13:17:00.422Z,6.25
2017-11-20T13:19:30.510Z,6.55
2017-11-20T13:21:59.826Z,7.60
2017-11-20T13:24:30.029Z,5.62
2017-11-20T13:26:59.485Z,5.78
2017-11-20T13:29:29.654Z,5.60
2017-11-20T13:32:00.147Z,6.40
2017-11-20T13:34:30.991Z,8.23
2017-11-20T13:37:00.456Z,6.37
2017-11-20T13:39:31.851Z,6.82
2017-11-20T13:42:01.071Z,5.78
2017-11-20T13:44:30.783Z,9.02
2017-11-20T13:47:00.762Z,9.05
2017-11-20T13:49:30.959Z,6.97
2017-11-20T13:52:00.226Z,8.82
2017-11-20T13:54:30.456Z,8.50
2017-11-20T13:57:03.513Z,6.95
2017-11-20T13:59:33.060Z,11.38
2017-11-20T14:02:03.439Z,9.55
2017-11-20T14:04:33.792Z,7.78
2017-11-20T14:07:04.279Z,7.55
2017-11-20T14:09:33.669Z,8.35
2017-11-20T14:12:10.648Z,9.52
2017-11-20T14:14:41.042Z,7.70
2017-11-20T14:17:16.576Z,8.82
2017-11-20T14:19:46.892Z,9.13
2017-11-20T14:22:17.994Z,12.60
2017-11-20T14:24:49.711Z,12.13
2017-11-20T14:27:22.856Z,11.02
2017-11-20T14:29:53.013Z,8.65
2017-11-20T14:32:24.369Z,9.50
2017-11-20T14:34:55.501Z,12.23
2017-11-20T14:37:26.665Z,11.57
2017-11-20T14:39:56.120Z,9.25
2017-11-20T14:42:25.531Z,12.48
2017-11-20T14:44:54.870Z,10.85
2017-11-20T14:47:28.698Z,10.20
2017-11-20T14:49:57.920Z,9.88
2017-11-20T14:52:29.216Z,9.07
2017-11-20T14:54:59.316Z,7.65
2017-11-20T14:57:29.861Z,9.02
2017-11-20T14:59:59.864Z,10.25
2017-11-20T15:02:29.172Z,9.50
2017-11-20T15:04:59.186Z,9.00
2017-11-20T15:07:29.279Z,8.18
2017-11-20T15:09:58.676Z,8.55
2017-11-20T15:12:29.120Z,7.90
2017-11-20T15:14:58.370Z,7.55
2017-11-20T15:17:27.768Z,9.13
2017-11-20T15:19:57.132Z,12.18
2017-11-20T15:22:32.570Z,7.82
2017-11-20T15:27:43.085Z,9.20
2017-11-20T15:30:17.413Z,7.75
2017-11-20T15:32:48.526Z,7.97
2017-11-20T15:35:18.822Z,5.97
2017-11-20T15:37:48.815Z,6.55
2017-11-20T15:40:18.191Z,7.10
2017-11-20T15:42:47.386Z,6.50
2017-11-20T15:45:16.704Z,6.28
2017-11-20T15:47:45.776Z,7.20
2017-11-20T15:50:19.236Z,7.43
2017-11-20T15:52:51.604Z,8.50
2017-11-20T15:55:24.498Z,6.78
2017-11-20T15:57:54.692Z,5.87
2017-11-20T16:00:26.455Z,6.70
2017-11-20T16:02:55.514Z,7.60
2017-11-20T16:05:24.862Z,6.78
2017-11-20T16:07:54.353Z,5.20
2017-11-20T16:10:27.377Z,8.27
2017-11-20T16:12:59.362Z,7.40
2017-11-20T16:15:30.709Z,5.60
2017-11-20T16:17:59.963Z,6.78
2017-11-20T16:20:44.353Z,5.30
2017-11-20T16:23:17.613Z,6.20
2017-11-20T16:25:47.271Z,7.47
2017-11-20T16:28:22.199Z,8.63
2017-11-20T16:30:54.523Z,7.47
2017-11-20T16:33:27.608Z,5.87
2017-11-20T16:35:58.099Z,8.23
2017-11-20T16:38:28.337Z,7.00
2017-11-20T16:40:58.768Z,7.68
2017-11-20T16:43:28.967Z,8.10
2017-11-20T16:45:58.340Z,9.98
2017-11-20T16:48:28.987Z,8.10
2017-11-20T16:50:58.285Z,6.57
2017-11-20T16:53:27.536Z,6.68
2017-11-20T16:55:57.500Z,7.55
2017-11-20T16:58:41.137Z,6.97
2017-11-20T17:01:18.166Z,8.25
2017-11-20T17:03:49.070Z,9.20
2017-11-20T17:06:18.808Z,7.97
2017-11-20T17:08:48.946Z,8.05
2017-11-20T17:11:18.860Z,9.55
2017-11-20T17:13:47.984Z,8.80
2017-11-20T17:16:26.050Z,9.70
2017-11-20T17:19:02.229Z,8.77
2017-11-20T17:21:31.435Z,8.65
2017-11-20T17:24:00.568Z,10.00
2017-11-20T17:26:37.015Z,9.45
2017-11-20T17:29:06.656Z,9.40
2017-11-20T17:31:36.036Z,9.32
2017-11-20T17:34:08.066Z,9.05
2017-11-20T17:36:38.221Z,10.00
2017-11-20T17:39:19.359Z,7.35
2017-11-20T17:41:50.286Z,8.27
2017-11-20T17:44:20.475Z,7.40
2017-11-20T17:46:51.108Z,9.30
2017-11-20T17:49:22.825Z,8.27
2017-11-20T17:51:52.336Z,7.40
2017-11-20T17:54:24.707Z,8.00
2017-11-20T17:56:54.829Z,8.02
2017-11-20T17:59:24.938Z,9.20
2017-11-20T18:01:54.212Z,8.38
2017-11-20T18:04:23.454Z,7.62
2017-11-20T18:06:53.629Z,10.38
2017-11-20T18:09:25.717Z,8.27
2017-11-20T18:11:57.653Z,9.63
2017-11-20T18:14:27.517Z,8.85
2017-11-20T18:16:57.000Z,8.77
2017-11-20T18:19:27.526Z,10.55
2017-11-20T18:21:58.175Z,8.73
2017-11-20T18:24:28.594Z,10.98
2017-11-20T18:26:58.152Z,12.23
2017-11-20T18:29:27.524Z,9.40
2017-11-20T18:31:57.306Z,10.82
2017-11-20T18:34:27.163Z,10.70
2017-11-20T18:36:57.147Z,11.15
2017-11-20T18:39:27.224Z,12.82
2017-11-20T18:41:56.605Z,11.38
2017-11-20T18:44:25.962Z,9.88
2017-11-20T18:46:55.975Z,11.52
2017-11-20T18:49:27.097Z,11.63
2017-11-20T18:51:57.018Z,12.63
2017-11-20T18:54:32.578Z,11.88
2017-11-20T18:57:02.631Z,10.27
2017-11-20T18:59:31.845Z,10.77
2017-11-20T19:02:12.188Z,12.13
2017-11-20T19:07:08.057Z,13.40
2017-11-20T19:09:38.100Z,10.65
2017-11-20T19:12:07.408Z,11.38
2017-11-20T19:14:37.766Z,9.50
2017-11-20T19:17:06.981Z,9.57
2017-11-20T19:19:36.409Z,8.18
2017-11-20T19:22:08.338Z,9.45
2017-11-20T19:24:38.343Z,9.25
2017-11-20T19:27:08.224Z,10.32
2017-11-20T19:29:38.433Z,11.20
2017-11-20T19:32:07.823Z,9.63
2017-11-20T19:34:37.468Z,10.88
2017-11-20T19:37:09.391Z,9.05
2017-11-20T19:39:38.524Z,8.75
2017-11-20T19:42:08.498Z,7.37
2017-11-20T19:44:37.590Z,8.98
2017-11-20T19:47:06.855Z,8.18
2017-11-20T19:49:36.083Z,8.98
2017-11-20T19:52:06.156Z,7.85
2017-11-20T19:54:36.273Z,7.82
2017-11-20T19:57:05.616Z,8.07
2017-11-20T19:59:35.662Z,8.52
2017-11-20T20:02:05.162Z,6.78
2017-11-20T20:04:34.393Z,7.43
2017-11-20T20:07:03.882Z,7.62
2017-11-20T20:09:34.082Z,6.75
2017-11-20T20:12:06.040Z,7.05
2017-11-20T20:15:00.157Z,6.90
2017-11-20T20:17:35.197Z,7.20
2017-11-20T20:20:15.406Z,8.25
2017-11-20T20:22:47.664Z,7.95
2017-11-20T20:25:18.005Z,8.38
2017-11-20T20:27:53.552Z,7.80
2017-11-20T20:30:23.063Z,7.75
2017-11-20T20:32:57.957Z,7.30
2017-11-20T20:35:27.450Z,6.30
2017-11-20T20:37:57.214Z,6.78
2017-11-20T20:40:28.149Z,4.90
2017-11-20T20:42:57.310Z,5.80
2017-11-20T20:45:27.422Z,6.07
2017-11-20T20:47:56.640Z,5.93
2017-11-20T20:50:28.170Z,9.02
2017-11-20T20:52:57.973Z,5.70
2017-11-20T20:55:27.605Z,5.20
2017-11-20T20:57:56.932Z,4.80
2017-11-20T21:00:29.950Z,5.22
2017-11-20T21:03:00.125Z,4.25
2017-11-20T21:05:31.323Z,4.60
2017-11-20T21:08:01.373Z,5.28
2017-11-20T21:10:44.063Z,4.22
2017-11-20T21:13:14.192Z,4.00
2017-11-20T21:15:43.643Z,5.40
2017-11-20T21:18:12.835Z,4.25
2017-11-20T21:20:43.903Z,5.18
2017-11-20T21:23:13.882Z,4.00
2017-11-20T21:25:43.091Z,4.37
2017-11-20T21:28:12.799Z,4.12
2017-11-20T21:30:41.978Z,5.20
2017-11-20T21:33:11.102Z,4.50
2017-11-20T21:35:40.258Z,4.40
2017-11-20T21:38:09.569Z,4.43
2017-11-20T21:40:39.730Z,5.10
2017-11-20T21:43:09.706Z,5.45
2017-11-20T21:45:39.170Z,5.53
2017-11-20T21:48:09.050Z,5.95
2017-11-20T21:50:38.241Z,5.80
2017-11-20T21:53:09.390Z,5.65
2017-11-20T21:55:38.690Z,5.93
2017-11-20T21:58:07.856Z,5.72
2017-11-20T22:00:37.385Z,6.03
2017-11-20T22:03:11.943Z,6.20
2017-11-20T22:05:41.893Z,6.72
2017-11-20T22:08:11.032Z,6.12
2017-11-20T22:10:40.230Z,7.00
2017-11-20T22:13:18.236Z,6.10
2017-11-20T22:15:47.535Z,6.78
2017-11-20T22:18:17.002Z,6.97
2017-11-20T22:20:47.854Z,6.82
2017-11-20T22:23:17.631Z,7.47
2017-11-20T22:25:46.936Z,7.75
2017-11-20T22:28:16.099Z,7.90
2017-11-20T22:30:45.908Z,7.65
2017-11-20T22:33:17.011Z,7.78
2017-11-20T22:35:47.609Z,7.65
2017-11-20T22:38:17.072Z,9.73
2017-11-20T22:40:46.701Z,10.35
2017-11-20T22:43:20.698Z,8.13
2017-11-20T22:45:52.053Z,8.52
2017-11-20T22:48:21.990Z,9.07
2017-11-20T22:50:51.063Z,8.32
2017-11-20T22:53:20.864Z,8.60
2017-11-20T22:55:49.905Z,9.95
2017-11-20T22:58:19.046Z,9.65
2017-11-20T23:00:48.384Z,9.18
2017-11-20T23:03:18.581Z,7.43
2017-11-20T23:05:48.582Z,8.45
2017-11-20T23:08:17.887Z,9.05
2017-11-20T23:10:48.083Z,9.15
2017-11-20T23:13:17.327Z,9.93
2017-11-20T23:15:47.267Z,9.93
2017-11-20T23:18:17.260Z,10.32
2017-11-20T23:20:46.488Z,14.77
2017-11-20T23:23:22.197Z,9.80
2017-11-20T23:25:51.324Z,12.85
2017-11-20T23:28:20.469Z,11.38
2017-11-20T23:30:49.790Z,12.52
2017-11-20T23:33:19.830Z,12.50
2017-11-20T23:35:49.116Z,12.90
2017-11-20T23:38:19.219Z,12.82
2017-11-20T23:40:49.233Z,12.15
2017-11-20T23:43:18.742Z,13.15
2017-11-20T23:45:48.832Z,12.75
2017-11-20T23:48:18.081Z,12.43
2017-11-20T23:50:48.109Z,12.20
2017-11-20T23:53:26.835Z,12.13
2017-11-20T23:55:55.984Z,12.00
2017-11-20T23:58:26.948Z,12.10
